sensor_id;sensor_type;location;lat;lon;timestamp;pressure;altitude;pressure_sealevel;temperature;humidity
22755;BME280;11544;42.020;23.094;2022-08-05T00:02:24;97184.53;;;20.83;58.24
22755;BME280;11544;42.020;23.094;2022-08-05T00:04:50;97184.75;;;21.02;57.87
22755;BME280;11544;42.020;23.094;2022-08-05T00:07:15;97188.91;;;20.48;60.12
22755;BME280;11544;42.020;23.094;2022-08-05T00:09:41;97186.31;;;20.71;59.72
22755;BME280;11544;42.020;23.094;2022-08-05T00:12:08;97181.84;;;20.71;59.37
22755;BME280;11544;42.020;23.094;2022-08-05T00:14:34;97179.56;;;20.78;59.94
22755;BME280;11544;42.020;23.094;2022-08-05T00:17:00;97181.59;;;20.63;60.64
22755;BME280;11544;42.020;23.094;2022-08-05T00:19:27;97177.91;;;20.77;60.81
22755;BME280;11544;42.020;23.094;2022-08-05T00:21:53;97176.84;;;20.91;59.71
22755;BME280;11544;42.020;23.094;2022-08-05T00:24:18;97175.38;;;20.87;59.85
22755;BME280;11544;42.020;23.094;2022-08-05T00:26:44;97174.66;;;20.96;60.82
22755;BME280;11544;42.020;23.094;2022-08-05T00:29:10;97175.34;;;20.76;60.55
22755;BME280;11544;42.020;23.094;2022-08-05T00:31:35;97174.06;;;21.04;60.71
22755;BME280;11544;42.020;23.094;2022-08-05T00:34:01;97174.66;;;20.85;61.04
22755;BME280;11544;42.020;23.094;2022-08-05T00:36:28;97177.06;;;20.88;60.50
22755;BME280;11544;42.020;23.094;2022-08-05T00:38:54;97175.50;;;20.97;60.18
22755;BME280;11544;42.020;23.094;2022-08-05T00:41:32;97185.22;;;20.73;61.70
22755;BME280;11544;42.020;23.094;2022-08-05T00:43:59;97175.16;;;21.12;60.77
22755;BME280;11544;42.020;23.094;2022-08-05T00:46:25;97180.31;;;20.91;60.72
22755;BME280;11544;42.020;23.094;2022-08-05T00:48:51;97180.88;;;20.61;63.51
22755;BME280;11544;42.020;23.094;2022-08-05T00:51:18;97181.34;;;20.55;62.31
22755;BME280;11544;42.020;23.094;2022-08-05T00:53:44;97181.16;;;20.69;63.09
22755;BME280;11544;42.020;23.094;2022-08-05T00:56:10;97182.19;;;20.67;63.29
22755;BME280;11544;42.020;23.094;2022-08-05T00:58:36;97180.63;;;20.64;61.71
22755;BME280;11544;42.020;23.094;2022-08-05T01:01:02;97182.09;;;20.68;60.63
22755;BME280;11544;42.020;23.094;2022-08-05T01:03:27;97180.16;;;20.59;61.25
22755;BME280;11544;42.020;23.094;2022-08-05T01:05:54;97183.41;;;20.27;63.24
22755;BME280;11544;42.020;23.094;2022-08-05T01:08:21;97182.59;;;20.62;62.72
22755;BME280;11544;42.020;23.094;2022-08-05T01:10:51;97180.88;;;20.61;62.05
22755;BME280;11544;42.020;23.094;2022-08-05T01:13:38;97185.09;;;20.28;62.94
22755;BME280;11544;42.020;23.094;2022-08-05T01:16:09;97182.69;;;20.25;62.44
22755;BME280;11544;42.020;23.094;2022-08-05T01:18:42;97187.09;;;20.14;62.88
22755;BME280;11544;42.020;23.094;2022-08-05T01:29:35;97191.75;;;20.34;63.10
22755;BME280;11544;42.020;23.094;2022-08-05T01:32:06;97187.88;;;20.38;63.34
22755;BME280;11544;42.020;23.094;2022-08-05T01:35:05;97187.38;;;19.98;64.09
22755;BME280;11544;42.020;23.094;2022-08-05T01:37:51;97191.09;;;19.95;64.39
22755;BME280;11544;42.020;23.094;2022-08-05T01:40:18;97198.41;;;20.16;64.13
22755;BME280;11544;42.020;23.094;2022-08-05T01:42:48;97198.28;;;20.17;63.53
22755;BME280;11544;42.020;23.094;2022-08-05T01:45:15;97199.09;;;19.82;64.82
22755;BME280;11544;42.020;23.094;2022-08-05T01:47:43;97200.34;;;19.90;65.32
22755;BME280;11544;42.020;23.094;2022-08-05T01:50:14;97201.00;;;20.04;65.35
22755;BME280;11544;42.020;23.094;2022-08-05T01:52:44;97201.84;;;20.05;64.14
22755;BME280;11544;42.020;23.094;2022-08-05T01:55:11;97206.69;;;19.87;64.70
22755;BME280;11544;42.020;23.094;2022-08-05T01:57:42;97200.28;;;19.65;65.39
22755;BME280;11544;42.020;23.094;2022-08-05T02:00:10;97201.53;;;19.36;66.42
22755;BME280;11544;42.020;23.094;2022-08-05T02:02:57;97205.84;;;19.50;66.00
22755;BME280;11544;42.020;23.094;2022-08-05T02:05:28;97200.28;;;19.65;65.85
22755;BME280;11544;42.020;23.094;2022-08-05T02:07:56;97206.91;;;19.47;65.94
22755;BME280;11544;42.020;23.094;2022-08-05T02:10:25;97196.50;;;19.57;67.07
22755;BME280;11544;42.020;23.094;2022-08-05T02:13:00;97210.16;;;19.51;66.93
22755;BME280;11544;42.020;23.094;2022-08-05T02:15:33;97204.03;;;19.50;66.26
22755;BME280;11544;42.020;23.094;2022-08-05T02:18:10;97207.88;;;19.33;67.50
22755;BME280;11544;42.020;23.094;2022-08-05T02:20:46;97208.06;;;19.43;67.09
22755;BME280;11544;42.020;23.094;2022-08-05T02:23:16;97200.72;;;19.59;67.19
22755;BME280;11544;42.020;23.094;2022-08-05T02:25:44;97206.38;;;19.42;66.61
22755;BME280;11544;42.020;23.094;2022-08-05T02:28:12;97203.06;;;18.89;68.57
22755;BME280;11544;42.020;23.094;2022-08-05T02:30:44;97205.34;;;19.32;68.29
22755;BME280;11544;42.020;23.094;2022-08-05T02:33:15;97209.56;;;19.34;67.56
22755;BME280;11544;42.020;23.094;2022-08-05T02:35:44;97210.69;;;19.43;68.47
22755;BME280;11544;42.020;23.094;2022-08-05T02:38:12;97212.06;;;19.49;69.26
22755;BME280;11544;42.020;23.094;2022-08-05T02:40:41;97209.59;;;19.71;67.24
22755;BME280;11544;42.020;23.094;2022-08-05T02:43:09;97205.00;;;19.36;67.72
22755;BME280;11544;42.020;23.094;2022-08-05T02:45:37;97210.25;;;18.87;69.36
22755;BME280;11544;42.020;23.094;2022-08-05T02:48:05;97203.75;;;19.42;69.41
22755;BME280;11544;42.020;23.094;2022-08-05T02:50:31;97200.81;;;19.21;70.22
22755;BME280;11544;42.020;23.094;2022-08-05T02:52:58;97216.69;;;19.58;68.83
22755;BME280;11544;42.020;23.094;2022-08-05T02:55:24;97208.41;;;19.62;67.71
22755;BME280;11544;42.020;23.094;2022-08-05T02:57:51;97213.09;;;19.59;68.39
22755;BME280;11544;42.020;23.094;2022-08-05T03:00:18;97204.06;;;19.24;68.76
22755;BME280;11544;42.020;23.094;2022-08-05T03:02:44;97213.50;;;19.16;67.66
22755;BME280;11544;42.020;23.094;2022-08-05T03:05:12;97208.84;;;19.19;67.75
22755;BME280;11544;42.020;23.094;2022-08-05T03:07:40;97218.28;;;18.98;69.09
22755;BME280;11544;42.020;23.094;2022-08-05T03:10:07;97215.28;;;19.15;68.51
22755;BME280;11544;42.020;23.094;2022-08-05T03:12:38;97214.88;;;18.96;68.48
22755;BME280;11544;42.020;23.094;2022-08-05T03:15:07;97213.09;;;18.96;69.27
22755;BME280;11544;42.020;23.094;2022-08-05T03:17:33;97217.16;;;18.75;70.51
22755;BME280;11544;42.020;23.094;2022-08-05T03:19:59;97218.56;;;19.06;69.73
22755;BME280;11544;42.020;23.094;2022-08-05T03:22:28;97213.16;;;19.20;68.97
22755;BME280;11544;42.020;23.094;2022-08-05T03:24:54;97220.66;;;18.75;69.75
22755;BME280;11544;42.020;23.094;2022-08-05T03:27:28;97216.59;;;18.44;71.88
22755;BME280;11544;42.020;23.094;2022-08-05T03:30:02;97218.53;;;18.68;69.62
22755;BME280;11544;42.020;23.094;2022-08-05T03:32:32;97217.69;;;18.67;69.69
22755;BME280;11544;42.020;23.094;2022-08-05T03:35:13;97220.78;;;18.74;70.42
22755;BME280;11544;42.020;23.094;2022-08-05T03:38:25;97223.56;;;18.85;69.94
22755;BME280;11544;42.020;23.094;2022-08-05T03:41:30;97220.44;;;18.66;70.21
22755;BME280;11544;42.020;23.094;2022-08-05T03:44:30;97221.03;;;18.31;70.49
22755;BME280;11544;42.020;23.094;2022-08-05T03:51:23;97227.91;;;18.46;70.05
22755;BME280;11544;42.020;23.094;2022-08-05T03:55:09;97224.59;;;18.30;70.63
22755;BME280;11544;42.020;23.094;2022-08-05T03:58:15;97226.84;;;18.09;71.71
22755;BME280;11544;42.020;23.094;2022-08-05T04:01:17;97228.75;;;18.34;71.53
22755;BME280;11544;42.020;23.094;2022-08-05T04:03:49;97228.78;;;18.59;70.13
22755;BME280;11544;42.020;23.094;2022-08-05T04:06:32;97226.03;;;18.48;70.46
22755;BME280;11544;42.020;23.094;2022-08-05T04:09:03;97230.94;;;18.40;70.72
22755;BME280;11544;42.020;23.094;2022-08-05T04:11:32;97233.28;;;18.45;70.92
22755;BME280;11544;42.020;23.094;2022-08-05T04:14:00;97231.28;;;18.48;71.38
22755;BME280;11544;42.020;23.094;2022-08-05T04:16:26;97229.44;;;18.23;72.32
22755;BME280;11544;42.020;23.094;2022-08-05T04:18:53;97230.34;;;18.49;71.97
22755;BME280;11544;42.020;23.094;2022-08-05T04:21:19;97239.22;;;18.61;72.37
22755;BME280;11544;42.020;23.094;2022-08-05T04:23:47;97235.34;;;18.67;71.58
22755;BME280;11544;42.020;23.094;2022-08-05T04:26:13;97226.94;;;18.47;72.79
22755;BME280;11544;42.020;23.094;2022-08-05T04:28:39;97220.88;;;18.59;71.68
22755;BME280;11544;42.020;23.094;2022-08-05T04:31:05;97229.41;;;18.63;72.20
22755;BME280;11544;42.020;23.094;2022-08-05T04:33:31;97232.78;;;18.52;71.87
22755;BME280;11544;42.020;23.094;2022-08-05T04:35:56;97231.75;;;18.55;72.01
22755;BME280;11544;42.020;23.094;2022-08-05T04:38:26;97226.09;;;18.99;70.16
22755;BME280;11544;42.020;23.094;2022-08-05T04:40:51;97236.31;;;19.17;70.01
22755;BME280;11544;42.020;23.094;2022-08-05T04:43:17;97233.72;;;20.03;67.03
22755;BME280;11544;42.020;23.094;2022-08-05T04:45:43;97227.38;;;20.17;66.73
22755;BME280;11544;42.020;23.094;2022-08-05T04:48:13;97230.84;;;19.70;68.12
22755;BME280;11544;42.020;23.094;2022-08-05T04:50:41;97234.22;;;20.68;66.43
22755;BME280;11544;42.020;23.094;2022-08-05T04:53:08;97226.53;;;21.89;60.43
22755;BME280;11544;42.020;23.094;2022-08-05T04:55:36;97220.97;;;20.68;62.21
22755;BME280;11544;42.020;23.094;2022-08-05T04:58:03;97224.16;;;22.29;58.07
22755;BME280;11544;42.020;23.094;2022-08-05T05:00:31;97223.31;;;22.17;58.90
22755;BME280;11544;42.020;23.094;2022-08-05T05:02:57;97220.41;;;22.53;57.12
22755;BME280;11544;42.020;23.094;2022-08-05T05:05:22;97215.38;;;22.50;56.53
22755;BME280;11544;42.020;23.094;2022-08-05T05:07:48;97212.66;;;21.96;58.38
22755;BME280;11544;42.020;23.094;2022-08-05T05:10:14;97215.75;;;21.35;61.26
22755;BME280;11544;42.020;23.094;2022-08-05T05:12:40;97217.69;;;21.33;61.80
22755;BME280;11544;42.020;23.094;2022-08-05T05:15:06;97209.75;;;22.85;57.60
22755;BME280;11544;42.020;23.094;2022-08-05T05:17:42;97207.72;;;23.60;54.96
22755;BME280;11544;42.020;23.094;2022-08-05T05:20:09;97218.94;;;22.81;56.92
22755;BME280;11544;42.020;23.094;2022-08-05T05:22:35;97214.06;;;22.86;57.13
22755;BME280;11544;42.020;23.094;2022-08-05T05:25:01;97214.38;;;23.44;55.61
22755;BME280;11544;42.020;23.094;2022-08-05T05:27:28;97210.06;;;23.53;55.25
22755;BME280;11544;42.020;23.094;2022-08-05T05:29:54;97212.34;;;23.58;55.58
22755;BME280;11544;42.020;23.094;2022-08-05T05:32:20;97206.53;;;23.43;56.58
22755;BME280;11544;42.020;23.094;2022-08-05T05:34:45;97211.91;;;24.03;55.44
22755;BME280;11544;42.020;23.094;2022-08-05T05:37:12;97208.09;;;22.31;59.89
22755;BME280;11544;42.020;23.094;2022-08-05T05:39:39;97207.19;;;22.41;59.97
22755;BME280;11544;42.020;23.094;2022-08-05T05:42:05;97207.50;;;23.42;58.04
22755;BME280;11544;42.020;23.094;2022-08-05T05:44:31;97201.66;;;24.27;55.56
22755;BME280;11544;42.020;23.094;2022-08-05T05:46:56;97197.84;;;23.81;57.12
22755;BME280;11544;42.020;23.094;2022-08-05T05:49:22;97213.22;;;24.47;54.64
22755;BME280;11544;42.020;23.094;2022-08-05T05:51:48;97198.47;;;24.53;53.68
22755;BME280;11544;42.020;23.094;2022-08-05T05:54:14;97208.53;;;23.91;56.76
22755;BME280;11544;42.020;23.094;2022-08-05T05:56:39;97206.88;;;24.09;55.47
22755;BME280;11544;42.020;23.094;2022-08-05T05:59:06;97202.50;;;24.18;56.48
22755;BME280;11544;42.020;23.094;2022-08-05T06:01:32;97197.38;;;25.77;51.29
22755;BME280;11544;42.020;23.094;2022-08-05T06:03:59;97199.22;;;25.67;51.30
22755;BME280;11544;42.020;23.094;2022-08-05T06:06:24;97191.09;;;25.96;51.01
22755;BME280;11544;42.020;23.094;2022-08-05T06:08:50;97197.28;;;24.95;51.40
22755;BME280;11544;42.020;23.094;2022-08-05T06:11:16;97192.81;;;25.60;50.71
22755;BME280;11544;42.020;23.094;2022-08-05T06:13:42;97188.50;;;25.12;51.54
22755;BME280;11544;42.020;23.094;2022-08-05T06:16:08;97195.97;;;25.46;51.66
22755;BME280;11544;42.020;23.094;2022-08-05T06:18:34;97188.28;;;26.16;49.85
22755;BME280;11544;42.020;23.094;2022-08-05T06:21:02;97180.22;;;25.80;48.59
22755;BME280;11544;42.020;23.094;2022-08-05T06:23:28;97180.84;;;24.89;52.78
22755;BME280;11544;42.020;23.094;2022-08-05T06:25:53;97187.47;;;25.60;50.74
22755;BME280;11544;42.020;23.094;2022-08-05T06:28:19;97185.88;;;25.49;50.70
22755;BME280;11544;42.020;23.094;2022-08-05T06:30:45;97184.00;;;25.77;50.15
22755;BME280;11544;42.020;23.094;2022-08-05T06:33:10;97181.31;;;26.05;48.57
22755;BME280;11544;42.020;23.094;2022-08-05T06:35:36;97169.63;;;26.24;48.32
22755;BME280;11544;42.020;23.094;2022-08-05T06:38:02;97163.34;;;27.21;46.60
22755;BME280;11544;42.020;23.094;2022-08-05T06:40:27;97174.31;;;26.22;47.60
22755;BME280;11544;42.020;23.094;2022-08-05T06:42:53;97169.72;;;25.96;48.11
22755;BME280;11544;42.020;23.094;2022-08-05T06:45:20;97164.22;;;27.30;46.52
22755;BME280;11544;42.020;23.094;2022-08-05T06:47:46;97173.28;;;27.11;46.46
22755;BME280;11544;42.020;23.094;2022-08-05T06:50:12;97169.69;;;26.68;46.89
22755;BME280;11544;42.020;23.094;2022-08-05T06:52:38;97163.06;;;26.80;46.37
22755;BME280;11544;42.020;23.094;2022-08-05T06:55:04;97167.75;;;26.78;46.39
22755;BME280;11544;42.020;23.094;2022-08-05T06:57:30;97162.44;;;27.13;45.86
22755;BME280;11544;42.020;23.094;2022-08-05T06:59:55;97160.31;;;26.46;47.50
22755;BME280;11544;42.020;23.094;2022-08-05T07:02:21;97157.59;;;26.82;46.15
22755;BME280;11544;42.020;23.094;2022-08-05T07:04:47;97157.47;;;27.60;45.09
22755;BME280;11544;42.020;23.094;2022-08-05T07:07:12;97156.47;;;28.28;43.22
22755;BME280;11544;42.020;23.094;2022-08-05T07:09:38;97147.56;;;28.12;42.51
22755;BME280;11544;42.020;23.094;2022-08-05T07:12:04;97152.31;;;27.75;43.01
22755;BME280;11544;42.020;23.094;2022-08-05T07:14:30;97150.81;;;27.22;45.00
22755;BME280;11544;42.020;23.094;2022-08-05T07:17:14;97153.03;;;27.35;44.84
22755;BME280;11544;42.020;23.094;2022-08-05T07:19:40;97155.06;;;27.92;44.27
22755;BME280;11544;42.020;23.094;2022-08-05T07:22:06;97150.91;;;27.97;44.96
22755;BME280;11544;42.020;23.094;2022-08-05T07:24:31;97152.22;;;28.01;42.79
22755;BME280;11544;42.020;23.094;2022-08-05T07:26:57;97141.88;;;28.15;42.30
22755;BME280;11544;42.020;23.094;2022-08-05T07:29:23;97148.50;;;27.01;44.58
22755;BME280;11544;42.020;23.094;2022-08-05T07:31:50;97145.56;;;28.38;43.76
22755;BME280;11544;42.020;23.094;2022-08-05T07:34:15;97133.03;;;28.47;42.42
22755;BME280;11544;42.020;23.094;2022-08-05T07:36:41;97138.53;;;28.13;43.92
22755;BME280;11544;42.020;23.094;2022-08-05T07:39:08;97136.19;;;28.42;43.47
22755;BME280;11544;42.020;23.094;2022-08-05T07:41:37;97127.81;;;28.37;42.72
22755;BME280;11544;42.020;23.094;2022-08-05T07:44:05;97121.09;;;28.82;41.78
22755;BME280;11544;42.020;23.094;2022-08-05T07:46:31;97117.56;;;29.38;41.43
22755;BME280;11544;42.020;23.094;2022-08-05T07:48:58;97119.94;;;29.64;41.29
22755;BME280;11544;42.020;23.094;2022-08-05T07:51:35;97119.84;;;29.01;41.15
22755;BME280;11544;42.020;23.094;2022-08-05T07:54:02;97116.66;;;29.06;41.25
22755;BME280;11544;42.020;23.094;2022-08-05T07:56:27;97121.53;;;27.79;42.89
22755;BME280;11544;42.020;23.094;2022-08-05T07:58:53;97120.28;;;29.29;41.09
22755;BME280;11544;42.020;23.094;2022-08-05T08:01:19;97109.44;;;30.08;40.31
22755;BME280;11544;42.020;23.094;2022-08-05T08:03:45;97115.38;;;29.41;39.85
22755;BME280;11544;42.020;23.094;2022-08-05T08:06:11;97107.44;;;29.48;39.92
22755;BME280;11544;42.020;23.094;2022-08-05T08:08:36;97098.84;;;30.07;38.36
22755;BME280;11544;42.020;23.094;2022-08-05T08:11:03;97102.94;;;30.03;38.43
22755;BME280;11544;42.020;23.094;2022-08-05T08:13:28;97100.13;;;29.33;38.29
22755;BME280;11544;42.020;23.094;2022-08-05T08:15:54;97095.56;;;29.73;38.12
22755;BME280;11544;42.020;23.094;2022-08-05T08:18:20;97093.06;;;29.95;38.39
22755;BME280;11544;42.020;23.094;2022-08-05T08:20:46;97089.16;;;30.21;37.13
22755;BME280;11544;42.020;23.094;2022-08-05T08:23:14;97090.91;;;30.13;36.79
22755;BME280;11544;42.020;23.094;2022-08-05T08:25:43;97085.66;;;30.43;37.62
22755;BME280;11544;42.020;23.094;2022-08-05T08:28:09;97084.31;;;31.07;36.01
22755;BME280;11544;42.020;23.094;2022-08-05T08:30:36;97079.72;;;30.63;36.53
22755;BME280;11544;42.020;23.094;2022-08-05T08:33:09;97079.19;;;30.97;35.60
22755;BME280;11544;42.020;23.094;2022-08-05T08:35:38;97075.00;;;30.50;35.55
22755;BME280;11544;42.020;23.094;2022-08-05T08:38:04;97067.75;;;29.89;35.83
22755;BME280;11544;42.020;23.094;2022-08-05T08:40:34;97065.25;;;29.88;36.38
22755;BME280;11544;42.020;23.094;2022-08-05T08:43:01;97071.59;;;31.00;35.06
22755;BME280;11544;42.020;23.094;2022-08-05T08:45:29;97063.63;;;31.07;34.76
22755;BME280;11544;42.020;23.094;2022-08-05T08:47:58;97060.72;;;31.09;34.30
22755;BME280;11544;42.020;23.094;2022-08-05T08:50:29;97063.81;;;31.06;33.98
22755;BME280;11544;42.020;23.094;2022-08-05T08:53:00;97064.34;;;30.71;34.37
22755;BME280;11544;42.020;23.094;2022-08-05T08:55:27;97057.22;;;31.23;33.83
22755;BME280;11544;42.020;23.094;2022-08-05T08:57:54;97051.97;;;31.36;34.06
22755;BME280;11544;42.020;23.094;2022-08-05T09:00:20;97054.13;;;31.41;34.67
22755;BME280;11544;42.020;23.094;2022-08-05T09:02:48;97052.16;;;31.50;35.24
22755;BME280;11544;42.020;23.094;2022-08-05T09:05:14;97052.94;;;31.14;35.89
22755;BME280;11544;42.020;23.094;2022-08-05T09:07:39;97042.34;;;31.42;35.91
22755;BME280;11544;42.020;23.094;2022-08-05T09:10:07;97031.03;;;31.75;35.73
22755;BME280;11544;42.020;23.094;2022-08-05T09:12:33;97031.25;;;31.73;35.29
22755;BME280;11544;42.020;23.094;2022-08-05T09:15:03;97026.06;;;31.35;35.98
22755;BME280;11544;42.020;23.094;2022-08-05T09:17:30;97025.38;;;31.12;35.26
22755;BME280;11544;42.020;23.094;2022-08-05T09:19:57;97026.94;;;31.57;35.10
22755;BME280;11544;42.020;23.094;2022-08-05T09:22:24;97016.75;;;31.96;35.24
22755;BME280;11544;42.020;23.094;2022-08-05T09:25:00;97015.34;;;32.00;34.42
22755;BME280;11544;42.020;23.094;2022-08-05T09:27:35;97012.06;;;32.04;35.04
22755;BME280;11544;42.020;23.094;2022-08-05T09:30:05;97011.81;;;31.78;35.52
22755;BME280;11544;42.020;23.094;2022-08-05T09:32:35;97009.44;;;31.90;34.46
22755;BME280;11544;42.020;23.094;2022-08-05T09:35:12;97006.69;;;32.04;34.51
22755;BME280;11544;42.020;23.094;2022-08-05T09:37:49;96999.72;;;32.17;34.96
22755;BME280;11544;42.020;23.094;2022-08-05T09:40:35;96990.59;;;32.46;33.25
22755;BME280;11544;42.020;23.094;2022-08-05T09:43:04;96989.91;;;32.37;34.26
22755;BME280;11544;42.020;23.094;2022-08-05T09:45:36;96985.53;;;32.64;34.32
22755;BME280;11544;42.020;23.094;2022-08-05T09:48:38;96974.56;;;32.66;33.47
22755;BME280;11544;42.020;23.094;2022-08-05T09:51:07;96971.06;;;32.79;34.36
22755;BME280;11544;42.020;23.094;2022-08-05T09:53:47;96970.81;;;32.67;33.06
22755;BME280;11544;42.020;23.094;2022-08-05T09:56:23;96972.63;;;32.60;33.32
22755;BME280;11544;42.020;23.094;2022-08-05T10:01:23;96968.88;;;32.54;32.47
22755;BME280;11544;42.020;23.094;2022-08-05T10:04:02;96958.22;;;32.81;31.63
22755;BME280;11544;42.020;23.094;2022-08-05T10:06:31;96960.75;;;32.19;31.69
22755;BME280;11544;42.020;23.094;2022-08-05T10:09:17;96947.66;;;32.93;32.19
22755;BME280;11544;42.020;23.094;2022-08-05T10:11:46;96947.59;;;33.21;32.27
22755;BME280;11544;42.020;23.094;2022-08-05T10:14:41;96959.50;;;32.92;31.05
22755;BME280;11544;42.020;23.094;2022-08-05T10:17:14;96948.31;;;32.95;30.85
22755;BME280;11544;42.020;23.094;2022-08-05T10:19:40;96941.59;;;32.77;31.12
22755;BME280;11544;42.020;23.094;2022-08-05T10:22:06;96936.94;;;32.23;31.71
22755;BME280;11544;42.020;23.094;2022-08-05T10:24:32;96937.16;;;33.04;30.06
22755;BME280;11544;42.020;23.094;2022-08-05T10:27:00;96938.16;;;33.03;29.08
22755;BME280;11544;42.020;23.094;2022-08-05T10:29:27;96933.91;;;33.29;29.98
22755;BME280;11544;42.020;23.094;2022-08-05T10:31:54;96932.38;;;31.95;30.51
22755;BME280;11544;42.020;23.094;2022-08-05T10:34:21;96935.84;;;32.17;27.97
22755;BME280;11544;42.020;23.094;2022-08-05T10:36:47;96935.63;;;32.47;27.89
22755;BME280;11544;42.020;23.094;2022-08-05T10:39:18;96927.72;;;32.87;28.26
22755;BME280;11544;42.020;23.094;2022-08-05T10:41:57;96932.22;;;33.15;29.00
22755;BME280;11544;42.020;23.094;2022-08-05T10:44:27;96922.47;;;33.40;28.11
22755;BME280;11544;42.020;23.094;2022-08-05T10:46:55;96918.69;;;33.21;28.70
22755;BME280;11544;42.020;23.094;2022-08-05T10:49:24;96923.59;;;32.49;28.19
22755;BME280;11544;42.020;23.094;2022-08-05T10:51:53;96915.13;;;32.53;28.24
22755;BME280;11544;42.020;23.094;2022-08-05T10:54:47;96911.47;;;32.32;28.98
22755;BME280;11544;42.020;23.094;2022-08-05T10:57:24;96907.00;;;32.94;30.11
22755;BME280;11544;42.020;23.094;2022-08-05T11:00:10;96906.88;;;33.22;29.28
22755;BME280;11544;42.020;23.094;2022-08-05T11:02:36;96895.31;;;33.62;28.95
22755;BME280;11544;42.020;23.094;2022-08-05T11:05:08;96893.03;;;33.72;28.45
22755;BME280;11544;42.020;23.094;2022-08-05T11:07:55;96892.41;;;33.70;28.82
22755;BME280;11544;42.020;23.094;2022-08-05T11:10:22;96894.63;;;33.40;29.10
22755;BME280;11544;42.020;23.094;2022-08-05T11:12:48;96897.97;;;33.35;28.58
22755;BME280;11544;42.020;23.094;2022-08-05T11:15:23;96884.66;;;33.53;28.50
22755;BME280;11544;42.020;23.094;2022-08-05T11:17:53;96875.75;;;33.73;28.11
22755;BME280;11544;42.020;23.094;2022-08-05T11:20:36;96875.56;;;33.68;28.76
22755;BME280;11544;42.020;23.094;2022-08-05T11:23:34;96864.75;;;33.74;29.22
22755;BME280;11544;42.020;23.094;2022-08-05T11:26:08;96868.06;;;33.63;28.47
22755;BME280;11544;42.020;23.094;2022-08-05T11:33:36;96864.06;;;34.06;28.36
22755;BME280;11544;42.020;23.094;2022-08-05T11:36:07;96859.34;;;33.88;29.17
22755;BME280;11544;42.020;23.094;2022-08-05T11:41:14;96849.97;;;33.90;29.74
22755;BME280;11544;42.020;23.094;2022-08-05T11:44:10;96855.38;;;33.70;29.80
22755;BME280;11544;42.020;23.094;2022-08-05T11:46:46;96847.28;;;33.84;30.06
22755;BME280;11544;42.020;23.094;2022-08-05T11:49:15;96857.41;;;34.08;29.05
22755;BME280;11544;42.020;23.094;2022-08-05T11:51:43;96850.09;;;34.35;28.72
22755;BME280;11544;42.020;23.094;2022-08-05T11:54:14;96850.13;;;34.22;28.19
22755;BME280;11544;42.020;23.094;2022-08-05T11:56:50;96860.41;;;33.67;29.02
22755;BME280;11544;42.020;23.094;2022-08-05T11:59:20;96847.88;;;33.39;29.71
22755;BME280;11544;42.020;23.094;2022-08-05T12:02:05;96844.19;;;33.60;29.44
22755;BME280;11544;42.020;23.094;2022-08-05T12:04:50;96841.44;;;33.40;28.89
22755;BME280;11544;42.020;23.094;2022-08-05T12:07:17;96841.22;;;33.28;29.14
22755;BME280;11544;42.020;23.094;2022-08-05T12:09:52;96833.56;;;33.79;29.42
22755;BME280;11544;42.020;23.094;2022-08-05T12:12:23;96825.22;;;33.80;29.09
22755;BME280;11544;42.020;23.094;2022-08-05T12:14:49;96830.00;;;33.91;28.20
22755;BME280;11544;42.020;23.094;2022-08-05T12:17:15;96833.50;;;34.19;28.55
22755;BME280;11544;42.020;23.094;2022-08-05T12:19:45;96821.63;;;34.20;28.39
22755;BME280;11544;42.020;23.094;2022-08-05T12:22:13;96818.72;;;34.21;27.54
22755;BME280;11544;42.020;23.094;2022-08-05T12:24:46;96817.47;;;34.17;28.06
22755;BME280;11544;42.020;23.094;2022-08-05T12:27:21;96807.97;;;33.81;27.56
22755;BME280;11544;42.020;23.094;2022-08-05T12:30:07;96821.59;;;34.33;28.47
22755;BME280;11544;42.020;23.094;2022-08-05T12:32:43;96817.47;;;34.24;27.41
22755;BME280;11544;42.020;23.094;2022-08-05T12:35:10;96802.66;;;34.33;27.27
22755;BME280;11544;42.020;23.094;2022-08-05T12:37:36;96792.59;;;34.47;26.82
22755;BME280;11544;42.020;23.094;2022-08-05T12:40:09;96802.69;;;34.20;26.54
22755;BME280;11544;42.020;23.094;2022-08-05T12:42:35;96803.31;;;34.22;26.99
22755;BME280;11544;42.020;23.094;2022-08-05T12:45:06;96799.88;;;33.88;26.77
22755;BME280;11544;42.020;23.094;2022-08-05T12:47:32;96793.16;;;34.04;27.05
22755;BME280;11544;42.020;23.094;2022-08-05T12:49:59;96791.28;;;34.04;26.32
22755;BME280;11544;42.020;23.094;2022-08-05T12:52:25;96797.72;;;34.17;26.74
22755;BME280;11544;42.020;23.094;2022-08-05T12:54:51;96789.78;;;34.22;26.23
22755;BME280;11544;42.020;23.094;2022-08-05T12:57:18;96791.34;;;33.78;26.94
22755;BME280;11544;42.020;23.094;2022-08-05T12:59:52;96792.56;;;33.88;27.04
22755;BME280;11544;42.020;23.094;2022-08-05T13:02:21;96781.13;;;33.93;27.11
22755;BME280;11544;42.020;23.094;2022-08-05T13:04:48;96779.50;;;33.85;27.51
22755;BME280;11544;42.020;23.094;2022-08-05T13:07:17;96780.53;;;33.71;26.53
22755;BME280;11544;42.020;23.094;2022-08-05T13:09:54;96777.44;;;33.67;27.14
22755;BME280;11544;42.020;23.094;2022-08-05T13:12:24;96774.66;;;33.94;26.39
22755;BME280;11544;42.020;23.094;2022-08-05T13:14:58;96765.94;;;33.92;26.72
22755;BME280;11544;42.020;23.094;2022-08-05T13:17:28;96783.84;;;33.93;26.86
22755;BME280;11544;42.020;23.094;2022-08-05T13:22:26;96773.50;;;33.37;27.33
22755;BME280;11544;42.020;23.094;2022-08-05T13:24:53;96772.88;;;33.68;27.50
22755;BME280;11544;42.020;23.094;2022-08-05T13:27:26;96767.28;;;33.63;27.14
22755;BME280;11544;42.020;23.094;2022-08-05T13:29:52;96759.78;;;33.65;27.28
22755;BME280;11544;42.020;23.094;2022-08-05T13:32:18;96755.00;;;33.73;27.54